aviador You're here:

LFSX Decoded Metar

LUXEUIL in FRANCE
Report Time2018-02-21 05:00:00
UTC Time2018-02-21 05:09:13
Flight Rules vfr VFR
Wind360° at 09 kt
W.Decomp.*RWY 29: 3.2 kt HW 8.4 kt RCW
Visibility9999 m
Phenomena:N/A
Clouds:Overcast 040 Hf
Expected CloudBase > 2,000 ft AGL from Temp-Dew spread
Ceiling4,000 ft
Temp00°C (ISA -13)
Dew Point-5°C (69% RH)
AAT-5.9°C
QNH1017 hPa
Density Alt-791 ft
Elevation896 ft
Report Wrong Elevation
Raw Report
METAR LFSX 210500Z AUTO 36009KT 9999 OVC040 M00/M05 Q1017 NOSIG=

Extra information for LFSX:More info

Metar Taf Metar & Taf Last 4 Metars F.Rules Stats Wind Profile Meteogram Temp Stats Airport Information Weather charts Add Link Nearby VenuesMetar ALERT Operation Metar Decoded Social comments